Time;durP1;ratioP1;P1;durP2;ratioP2;P2;SDS_P1;SDS_P2;PMS_P1;PMS_P2;Temp;Humidity;BMP_temperature;BMP_pressure;BME280_temperature;BME280_humidity;BME280_pressure;Samples;Min_cycle;Max_cycle;Signal;HPM_P1;HPM_P2
2021/03/31 00:02:03;;;;;;;14.83;9.03;;;;;;;11.07;68.40;101216.80;609291;230;43656;-76
2021/03/31 00:04:31;;;;;;;15.77;8.97;;;;;;;10.42;71.35;101226.28;628963;223;24819;-76
2021/03/31 00:06:58;;;;;;;15.67;9.20;;;;;;;10.63;71.70;101228.50;614946;230;33349;-76
2021/03/31 00:09:26;;;;;;;12.93;8.47;;;;;;;10.62;70.12;101221.64;635592;224;24890;-76
2021/03/31 00:11:54;;;;;;;12.73;8.20;;;;;;;10.50;70.99;101222.59;639354;224;25127;-76
2021/03/31 00:14:22;;;;;;;10.73;7.93;;;;;;;10.16;72.13;101225.66;640404;220;23808;-76
2021/03/31 00:16:50;;;;;;;14.98;8.58;;;;;;;10.51;71.81;101224.25;617134;229;33152;-76
2021/03/31 00:19:18;;;;;;;17.73;9.07;;;;;;;10.30;71.37;101228.05;626508;226;23668;-76
2021/03/31 00:21:46;;;;;;;13.43;8.47;;;;;;;10.31;70.85;101218.01;634910;225;24792;-76
2021/03/31 00:24:14;;;;;;;16.70;8.50;;;;;;;10.33;71.10;101217.89;636964;222;24779;-76
2021/03/31 00:26:42;;;;;;;10.97;7.27;;;;;;;10.36;70.99;101218.94;633297;225;24833;-76
2021/03/31 00:29:09;;;;;;;12.87;8.03;;;;;;;10.30;71.20;101210.33;637705;223;24782;-76
2021/03/31 00:31:37;;;;;;;10.87;6.70;;;;;;;10.20;70.96;101211.94;616517;229;24883;-76
2021/03/31 00:34:05;;;;;;;10.50;7.50;;;;;;;10.30;70.03;101205.12;635358;225;24856;-76
2021/03/31 00:36:33;;;;;;;11.13;7.30;;;;;;;10.55;68.17;101200.12;634527;225;24834;-75
2021/03/31 00:39:01;;;;;;;11.20;6.80;;;;;;;10.74;67.34;101189.11;638753;224;24842;-76
2021/03/31 00:41:29;;;;;;;13.97;7.53;;;;;;;10.82;67.74;101184.92;615335;229;24855;-76
2021/03/31 00:43:57;;;;;;;15.90;7.40;;;;;;;10.91;66.44;101184.20;629008;226;24867;-76
2021/03/31 00:46:25;;;;;;;13.50;7.90;;;;;;;10.86;66.83;101178.55;626392;225;24871;-76
2021/03/31 00:48:52;;;;;;;12.00;7.03;;;;;;;10.62;68.58;101184.39;613034;230;24840;-76
2021/03/31 00:51:20;;;;;;;12.97;7.20;;;;;;;10.20;71.85;101192.45;629876;225;24839;-76
2021/03/31 00:53:48;;;;;;;12.80;7.67;;;;;;;9.77;73.32;101200.92;623107;228;24833;-76
2021/03/31 00:56:16;;;;;;;10.33;6.90;;;;;;;9.61;73.92;101205.14;630229;226;24847;-75
2021/03/31 00:58:44;;;;;;;11.97;7.80;;;;;;;9.70;73.54;101194.52;635909;225;23806;-76
2021/03/31 01:01:12;;;;;;;9.20;6.87;;;;;;;9.77;73.09;101195.25;636833;225;23962;-76
2021/03/31 01:03:39;;;;;;;14.00;7.80;;;;;;;9.80;72.90;101188.98;638149;225;24792;-76
2021/03/31 01:06:07;;;;;;;10.93;7.57;;;;;;;9.77;72.58;101184.86;633246;221;24905;-76
2021/03/31 01:08:35;;;;;;;11.80;8.00;;;;;;;10.24;71.31;101176.98;622889;227;32870;-75
2021/03/31 01:11:03;;;;;;;10.23;7.33;;;;;;;9.87;71.36;101175.91;636183;225;24828;-76
2021/03/31 01:13:46;;;;;;;15.23;7.80;;;;;;;9.73;72.73;101182.62;637372;225;24832;-76
2021/03/31 01:16:20;;;;;;;10.30;7.47;;;;;;;9.77;72.09;101182.73;618421;229;23915;-76
2021/03/31 01:18:49;;;;;;;18.73;7.13;;;;;;;10.00;71.66;101175.33;631903;225;24833;-76
2021/03/31 01:21:48;;;;;;;10.70;6.90;;;;;;;10.04;70.79;101171.53;630430;224;25030;-76
2021/03/31 01:24:34;;;;;;;12.70;7.42;;;;;;;10.64;68.01;101153.88;625904;225;32999;-75
2021/03/31 01:27:02;;;;;;;11.85;7.62;;;;;;;10.76;68.13;101144.27;617282;229;33234;-76
2021/03/31 01:29:34;;;;;;;10.93;8.00;;;;;;;10.83;68.08;101138.91;609464;230;32930;-76
2021/03/31 01:32:05;;;;;;;17.37;7.63;;;;;;;10.10;70.00;101146.83;635930;224;23685;-76
2021/03/31 01:34:37;;;;;;;8.37;6.50;;;;;;;10.01;69.51;101139.77;638451;221;24851;-76
2021/03/31 01:37:08;;;;;;;10.85;7.35;;;;;;;10.49;68.79;101139.02;620634;229;33010;-76
2021/03/31 01:39:38;;;;;;;10.77;7.57;;;;;;;9.82;70.21;101133.84;631529;225;23684;-76
2021/03/31 01:42:06;;;;;;;14.70;7.73;;;;;;;9.73;70.99;101137.16;618011;229;24940;-76
2021/03/31 01:44:34;;;;;;;13.90;7.20;;;;;;;9.70;71.65;101145.16;615063;229;24893;-76
2021/03/31 01:47:02;;;;;;;10.78;7.03;;;;;;;10.17;69.62;101138.92;613994;230;33022;-76
2021/03/31 01:49:30;;;;;;;11.00;6.87;;;;;;;9.72;71.13;101142.00;635802;225;22698;-76
2021/03/31 01:51:57;;;;;;;9.30;6.97;;;;;;;9.57;71.98;101149.19;637668;225;25266;-76
2021/03/31 01:54:25;;;;;;;9.73;7.10;;;;;;;9.61;70.84;101145.87;637711;221;24791;-76
2021/03/31 01:56:53;;;;;;;13.80;7.10;;;;;;;9.52;71.23;101146.91;620768;229;24888;-76
2021/03/31 01:59:21;;;;;;;9.90;6.27;;;;;;;9.57;70.48;101140.53;634071;225;23834;-76
2021/03/31 02:01:50;;;;;;;14.83;7.33;;;;;;;9.63;70.26;101140.09;634769;225;24828;-76
2021/03/31 02:04:18;;;;;;;9.53;6.40;;;;;;;9.61;70.79;101144.58;632497;222;26366;-76
2021/03/31 02:06:46;;;;;;;10.93;6.77;;;;;;;9.60;71.43;101142.92;621828;229;23875;-75
2021/03/31 02:09:14;;;;;;;11.33;7.33;;;;;;;9.60;71.89;101143.75;613931;230;24847;-76
2021/03/31 02:11:42;;;;;;;10.60;6.73;;;;;;;9.57;71.79;101137.94;632254;225;26967;-76
2021/03/31 02:14:11;;;;;;;10.33;7.33;;;;;;;9.57;71.33;101134.05;637033;225;24887;-76
2021/03/31 02:16:38;;;;;;;10.70;7.07;;;;;;;9.43;71.51;101133.34;636661;225;24870;-76
2021/03/31 02:19:06;;;;;;;13.00;6.93;;;;;;;9.32;72.16;101129.41;624075;229;23984;-76
2021/03/31 02:21:34;;;;;;;13.63;7.47;;;;;;;9.34;71.70;101128.83;618740;228;27001;-75
2021/03/31 02:24:02;;;;;;;10.93;7.10;;;;;;;9.31;72.00;101127.77;633653;221;24785;-75
2021/03/31 02:26:30;;;;;;;8.87;6.40;;;;;;;8.92;73.48;101129.75;638256;224;24837;-76
2021/03/31 02:28:58;;;;;;;10.53;6.80;;;;;;;9.52;71.40;101127.44;632005;225;32861;-76
2021/03/31 02:31:26;;;;;;;9.40;7.00;;;;;;;8.98;73.55;101134.95;638505;222;27007;-76
2021/03/31 02:33:54;;;;;;;12.63;7.00;;;;;;;8.89;74.20;101138.23;625641;228;27018;-76
2021/03/31 02:36:23;;;;;;;8.90;6.33;;;;;;;8.76;74.31;101136.17;637547;224;24789;-76
2021/03/31 02:38:50;;;;;;;12.10;7.00;;;;;;;8.71;74.55;101136.48;636815;225;27069;-76
2021/03/31 02:41:17;;;;;;;14.10;7.63;;;;;;;8.74;74.23;101142.77;633466;225;24989;-75
2021/03/31 02:43:45;;;;;;;12.80;7.27;;;;;;;9.08;73.70;101133.34;635504;225;24802;-75
2021/03/31 02:46:14;;;;;;;9.70;6.87;;;;;;;9.11;73.48;101127.92;635392;223;24825;-75
2021/03/31 02:48:42;;;;;;;11.75;7.67;;;;;;;9.77;70.47;101125.58;615267;230;33066;-75
2021/03/31 02:51:10;;;;;;;9.30;6.43;;;;;;;9.19;72.19;101117.81;617020;227;23719;-75
2021/03/31 02:53:38;;;;;;;13.63;7.80;;;;;;;9.05;73.41;101118.48;629429;228;24936;-75
2021/03/31 02:56:07;;;;;;;10.90;7.33;;;;;;;8.89;73.68;101120.08;627566;226;24801;-75
2021/03/31 02:58:34;;;;;;;9.10;6.95;;;;;;;9.58;71.69;101105.39;633169;225;32986;-75
2021/03/31 03:01:03;;;;;;;10.60;6.73;;;;;;;9.01;72.71;101110.54;637081;224;23712;-75
2021/03/31 03:03:31;;;;;;;10.03;7.20;;;;;;;8.85;72.62;101111.66;636473;225;24818;-75
2021/03/31 03:05:58;;;;;;;10.80;7.00;;;;;;;8.67;73.86;101119.48;622947;228;24831;-75
2021/03/31 03:08:26;;;;;;;9.57;7.00;;;;;;;8.67;74.11;101123.85;629720;225;24831;-75
2021/03/31 03:10:56;;;;;;;10.50;7.03;;;;;;;8.70;74.09;101126.22;631744;225;24874;-75
2021/03/31 03:13:24;;;;;;;11.30;7.30;;;;;;;8.67;75.09;101131.16;632985;225;24831;-75
2021/03/31 03:15:52;;;;;;;11.85;7.03;;;;;;;9.42;72.04;101121.74;627630;225;32882;-75
2021/03/31 03:18:19;;;;;;;11.63;7.27;;;;;;;8.84;73.43;101126.05;629461;226;28058;-75
2021/03/31 03:20:47;;;;;;;10.03;6.57;;;;;;;8.72;74.63;101127.75;634992;225;25861;-75
2021/03/31 03:23:15;;;;;;;11.30;6.30;;;;;;;8.60;74.48;101129.95;619416;230;24861;-75
2021/03/31 03:25:43;;;;;;;9.60;7.10;;;;;;;8.57;73.89;101131.45;622876;228;23881;-75
2021/03/31 03:28:11;;;;;;;12.00;7.30;;;;;;;8.67;74.11;101129.86;617871;230;25162;-75
2021/03/31 03:30:39;;;;;;;10.40;6.70;;;;;;;9.35;72.59;101117.50;633191;225;40524;-75
2021/03/31 03:33:07;;;;;;;8.23;6.70;;;;;;;8.80;74.11;101120.27;638280;225;24826;-75
2021/03/31 03:35:35;;;;;;;11.03;7.03;;;;;;;8.70;73.62;101127.05;637300;221;28003;-75
2021/03/31 03:38:02;;;;;;;13.60;7.00;;;;;;;8.65;73.71;101132.21;621039;229;24890;-75
2021/03/31 03:40:30;;;;;;;10.67;7.10;;;;;;;8.44;75.56;101131.96;638126;225;24801;-75
2021/03/31 03:42:58;;;;;;;10.27;7.00;;;;;;;8.46;75.56;101132.70;636686;222;26953;-75
2021/03/31 03:45:26;;;;;;;10.23;6.90;;;;;;;8.39;75.67;101131.00;639346;220;24825;-75
2021/03/31 03:47:54;;;;;;;13.40;6.93;;;;;;;8.42;75.43;101127.36;637878;224;24810;-75
2021/03/31 03:50:22;;;;;;;11.93;7.20;;;;;;;8.19;76.52;101135.44;638432;225;24896;-75
2021/03/31 03:52:49;;;;;;;10.37;7.07;;;;;;;8.13;75.67;101136.67;631160;224;27091;-75
2021/03/31 03:55:18;;;;;;;10.20;6.90;;;;;;;8.02;75.39;101133.99;636051;221;23849;-75
2021/03/31 03:57:46;;;;;;;9.70;6.10;;;;;;;7.93;75.83;101133.34;638076;224;24827;-75
2021/03/31 04:00:15;;;;;;;8.50;6.90;;;;;;;7.85;75.46;101133.86;635869;224;24807;-76
2021/03/31 04:02:43;;;;;;;11.17;7.10;;;;;;;7.80;76.31;101131.23;625184;229;25063;-75
2021/03/31 04:05:12;;;;;;;11.90;7.50;;;;;;;8.56;74.33;101133.22;613689;229;32919;-75
2021/03/31 04:07:39;;;;;;;11.87;7.20;;;;;;;8.04;75.05;101130.86;637584;225;23693;-75
2021/03/31 04:10:08;;;;;;;10.83;7.30;;;;;;;7.93;76.15;101133.34;635839;225;27051;-75
2021/03/31 04:12:36;;;;;;;9.40;6.90;;;;;;;7.79;76.47;101132.17;636146;225;24837;-75
2021/03/31 04:15:06;;;;;;;8.18;6.67;;;;;;;8.50;74.38;101122.00;619609;229;33011;-75
2021/03/31 04:17:33;;;;;;;11.67;6.90;;;;;;;7.87;75.58;101121.63;626253;226;23687;-75
2021/03/31 04:20:01;;;;;;;13.67;7.20;;;;;;;7.76;76.14;101124.15;624371;228;24849;-75
2021/03/31 04:22:30;;;;;;;10.47;6.80;;;;;;;7.49;77.24;101128.13;635111;225;24852;-75
2021/03/31 04:24:57;;;;;;;10.77;7.63;;;;;;;7.59;77.04;101129.61;626968;228;24848;-75
2021/03/31 04:27:25;;;;;;;12.40;8.43;;;;;;;7.11;79.10;101140.53;626446;224;25892;-75
2021/03/31 04:29:53;;;;;;;10.73;7.43;;;;;;;7.14;79.08;101139.03;636439;225;28059;-74
2021/03/31 04:32:21;;;;;;;8.97;6.93;;;;;;;7.09;79.67;101141.11;636785;225;24783;-75
2021/03/31 04:34:49;;;;;;;11.73;7.37;;;;;;;7.09;79.92;101146.75;619764;229;24929;-74
2021/03/31 04:37:18;;;;;;;10.73;6.87;;;;;;;7.02;80.04;101141.13;629910;226;24871;-75
2021/03/31 04:39:45;;;;;;;11.60;7.40;;;;;;;7.04;79.32;101135.41;637293;225;27083;-75
2021/03/31 04:42:13;;;;;;;11.17;6.90;;;;;;;7.00;80.06;101131.34;637836;225;24859;-75
2021/03/31 04:44:41;;;;;;;11.13;7.70;;;;;;;7.01;79.79;101123.95;614078;230;24864;-75
2021/03/31 04:47:09;;;;;;;11.53;7.37;;;;;;;7.11;78.62;101132.78;635589;225;24795;-75
2021/03/31 04:49:37;;;;;;;9.00;6.40;;;;;;;7.03;78.87;101131.14;636019;225;24778;-75
2021/03/31 04:52:06;;;;;;;9.70;7.03;;;;;;;6.90;79.83;101129.45;637285;225;24800;-75
2021/03/31 04:54:33;;;;;;;9.67;6.90;;;;;;;6.77;79.92;101133.31;620407;225;24896;-76
2021/03/31 04:57:02;;;;;;;10.55;7.30;;;;;;;7.52;78.02;101125.33;616215;228;33110;-75
2021/03/31 04:59:29;;;;;;;11.47;7.03;;;;;;;6.97;79.07;101125.09;626887;229;23735;-75
2021/03/31 05:01:57;;;;;;;8.50;6.80;;;;;;;6.78;79.55;101127.21;630527;225;24846;-75
2021/03/31 05:04:25;;;;;;;12.30;6.87;;;;;;;6.68;80.43;101127.42;626337;225;25136;-75
2021/03/31 05:06:53;;;;;;;15.13;7.03;;;;;;;6.81;79.29;101127.01;624688;229;24906;-76
2021/03/31 05:09:21;;;;;;;12.27;7.67;;;;;;;6.70;79.57;101130.73;624997;227;24921;-75
2021/03/31 05:11:49;;;;;;;13.60;8.30;;;;;;;6.44;81.69;101142.24;632669;225;24860;-75
2021/03/31 05:14:17;;;;;;;13.33;8.80;;;;;;;6.33;82.33;101141.25;628128;223;24833;-74
2021/03/31 05:16:45;;;;;;;16.93;9.20;;;;;;;6.15;85.20;101161.29;637256;224;24803;-77
2021/03/31 05:19:13;;;;;;;10.20;7.67;;;;;;;6.22;84.33;101153.55;639305;224;24794;-77
2021/03/31 05:21:41;;;;;;;11.93;8.13;;;;;;;6.92;81.85;101141.38;618325;229;33054;-77
2021/03/31 05:24:09;;;;;;;19.70;9.80;;;;;;;6.67;82.15;101133.52;632376;225;23713;-77
2021/03/31 05:26:38;;;;;;;15.10;8.27;;;;;;;6.48;83.37;101133.40;616450;229;24891;-75
2021/03/31 05:29:07;;;;;;;14.30;7.20;;;;;;;6.48;82.96;101138.56;634240;225;24827;-75
2021/03/31 05:31:34;;;;;;;14.28;8.00;;;;;;;7.26;80.98;101132.23;632023;224;32780;-75
2021/03/31 05:34:02;;;;;;;13.47;7.90;;;;;;;6.92;81.05;101122.45;622639;229;31194;-75
2021/03/31 05:36:30;;;;;;;11.30;7.50;;;;;;;6.89;81.47;101120.03;617174;229;24966;-75
2021/03/31 05:38:58;;;;;;;39.73;9.70;;;;;;;6.84;80.81;101126.34;636755;225;24843;-75
2021/03/31 05:41:26;;;;;;;26.93;9.27;;;;;;;6.68;82.05;101130.84;638363;225;24845;-75
2021/03/31 05:43:54;;;;;;;31.27;9.50;;;;;;;6.77;81.82;101128.97;634182;225;24882;-75
2021/03/31 05:46:22;;;;;;;25.10;8.80;;;;;;;7.43;79.40;101121.59;624807;225;32817;-75
2021/03/31 05:48:49;;;;;;;32.13;10.40;;;;;;;7.09;80.37;101121.70;633650;225;24871;-74
2021/03/31 05:51:17;;;;;;;17.32;8.35;;;;;;;7.58;79.30;101118.44;620472;225;32989;-74
2021/03/31 05:53:45;;;;;;;18.10;8.07;;;;;;;7.18;80.01;101126.75;636539;224;23713;-75
2021/03/31 05:56:13;;;;;;;17.23;7.90;;;;;;;7.23;80.66;101126.44;616257;229;24877;-76
2021/03/31 05:58:41;;;;;;;15.20;8.30;;;;;;;7.19;80.67;101131.00;637319;225;24787;-75
2021/03/31 06:01:09;;;;;;;16.77;7.60;;;;;;;7.28;80.60;101125.66;637635;225;24817;-75
2021/03/31 06:03:37;;;;;;;13.80;8.23;;;;;;;7.22;81.29;101128.20;622435;229;24897;-75
2021/03/31 06:06:05;;;;;;;19.53;8.83;;;;;;;7.39;80.66;101127.08;625496;225;24808;-75
2021/03/31 06:08:33;;;;;;;12.50;7.90;;;;;;;7.26;81.02;101127.06;639168;224;24848;-73
2021/03/31 06:11:01;;;;;;;14.10;8.50;;;;;;;8.06;79.13;101129.45;625276;224;32781;-75
2021/03/31 06:13:46;;;;;;;21.30;8.90;;;;;;;7.82;79.11;101121.59;620048;229;26113;-75
2021/03/31 06:16:27;;;;;;;13.83;8.50;;;;;;;8.59;76.92;101118.77;614129;229;33127;-75
2021/03/31 06:18:55;;;;;;;11.37;6.90;;;;;;;8.11;78.63;101121.70;637898;224;24816;-74
2021/03/31 06:21:22;;;;;;;13.80;7.57;;;;;;;8.21;78.95;101110.24;638400;224;25135;-75
2021/03/31 06:23:58;;;;;;;14.60;7.63;;;;;;;8.36;77.98;101114.84;632630;225;25206;-75
2021/03/31 06:26:24;;;;;;;12.03;8.10;;;;;;;8.65;77.77;101115.36;636222;224;24829;-75
2021/03/31 06:28:55;;;;;;;12.73;8.40;;;;;;;8.79;77.68;101113.42;625013;229;24863;-75
2021/03/31 06:31:23;;;;;;;16.17;9.30;;;;;;;8.87;77.24;101117.59;635841;225;24802;-74
2021/03/31 06:33:51;;;;;;;13.40;9.83;;;;;;;8.96;75.81;101110.06;620443;229;24843;-75
2021/03/31 06:36:19;;;;;;;15.47;10.20;;;;;;;9.02;75.89;101112.22;637819;225;24840;-75
2021/03/31 06:38:48;;;;;;;17.90;10.43;;;;;;;9.16;75.78;101102.95;618445;229;25036;-75
2021/03/31 06:41:25;;;;;;;15.27;9.73;;;;;;;9.11;76.43;101106.33;614518;229;24849;-75
2021/03/31 06:44:04;;;;;;;15.63;10.40;;;;;;;9.30;76.18;101107.11;614047;230;26138;-75
2021/03/31 06:46:34;;;;;;;15.40;11.18;;;;;;;10.09;73.89;101097.09;631355;225;33062;-75
2021/03/31 06:48:59;;;;;;;15.50;10.37;;;;;;;9.87;74.70;101094.06;637465;225;23688;-75
2021/03/31 06:51:27;;;;;;;15.73;11.00;;;;;;;9.92;74.13;101097.12;626796;228;25877;-75
2021/03/31 06:53:55;;;;;;;16.00;10.43;;;;;;;9.86;74.16;101095.48;617908;229;24845;-75
2021/03/31 06:56:28;;;;;;;19.30;11.40;;;;;;;9.97;73.95;101087.66;614200;230;24845;-75
2021/03/31 06:59:00;;;;;;;21.70;12.37;;;;;;;10.30;73.45;101089.43;624410;228;24837;-75
2021/03/31 07:01:28;;;;;;;17.73;10.30;;;;;;;10.51;72.88;101089.00;634362;225;24856;-75
2021/03/31 07:03:56;;;;;;;17.83;10.20;;;;;;;10.67;71.87;101085.52;633327;225;24831;-75
2021/03/31 07:06:24;;;;;;;16.30;10.30;;;;;;;10.86;70.71;101082.26;631515;221;24850;-75
2021/03/31 07:08:52;;;;;;;21.30;9.60;;;;;;;11.09;70.44;101080.83;637257;225;26138;-75
2021/03/31 07:11:30;;;;;;;17.90;9.90;;;;;;;10.74;69.98;101078.53;635159;225;26976;-75
2021/03/31 07:14:00;;;;;;;15.20;10.67;;;;;;;11.23;70.29;101077.42;634709;225;24801;-75
2021/03/31 07:16:28;;;;;;;18.20;9.80;;;;;;;11.36;69.12;101075.92;638119;221;24814;-75
2021/03/31 07:18:57;;;;;;;15.40;9.77;;;;;;;11.58;68.36;101069.26;638555;223;24931;-75
2021/03/31 07:21:25;;;;;;;15.37;10.60;;;;;;;11.62;69.28;101075.50;638763;224;24820;-75
2021/03/31 07:23:53;;;;;;;12.37;7.90;;;;;;;11.73;68.00;101067.61;618809;229;26022;-75
2021/03/31 07:26:21;;;;;;;14.20;8.13;;;;;;;11.99;67.34;101062.31;634526;224;24794;-75
2021/03/31 07:28:50;;;;;;;14.63;7.83;;;;;;;12.05;67.46;101059.63;638644;224;27291;-75
2021/03/31 07:31:22;;;;;;;10.20;7.90;;;;;;;12.24;68.75;101067.97;636869;224;24829;-75
2021/03/31 07:33:49;;;;;;;14.30;8.93;;;;;;;12.22;68.39;101077.23;624105;228;28054;-75
2021/03/31 07:36:17;;;;;;;13.40;7.87;;;;;;;12.48;67.03;101069.72;632820;226;24876;-75
2021/03/31 07:38:45;;;;;;;19.90;8.77;;;;;;;12.73;66.74;101073.58;626417;225;23818;-75
2021/03/31 07:41:13;;;;;;;14.90;8.03;;;;;;;12.48;66.33;101067.94;625856;226;25086;-75
2021/03/31 07:43:41;;;;;;;13.97;7.60;;;;;;;12.49;64.65;101060.45;631826;226;24841;-76
2021/03/31 07:46:08;;;;;;;15.40;7.53;;;;;;;12.47;64.69;101061.07;632212;226;24871;-76
2021/03/31 07:48:36;;;;;;;9.93;7.60;;;;;;;12.79;63.98;101057.36;636786;225;28036;-75
2021/03/31 07:51:16;;;;;;;12.70;7.37;;;;;;;12.67;64.15;101055.39;629142;225;24814;-75
2021/03/31 07:53:44;;;;;;;15.17;8.10;;;;;;;13.32;64.03;101051.66;634459;225;24847;-76
2021/03/31 07:56:14;;;;;;;15.60;8.07;;;;;;;13.24;64.17;101045.86;635795;225;24837;-75
2021/03/31 07:58:41;;;;;;;10.60;7.50;;;;;;;13.53;62.09;101048.38;634327;225;24886;-75
2021/03/31 08:01:11;;;;;;;11.30;7.83;;;;;;;13.67;62.13;101037.92;630049;225;24816;-75
2021/03/31 08:03:39;;;;;;;14.63;8.40;;;;;;;14.15;62.16;101038.95;620392;229;24872;-75
2021/03/31 08:06:13;;;;;;;12.13;7.97;;;;;;;14.23;60.51;101031.68;634418;225;24827;-75
2021/03/31 08:08:58;;;;;;;12.97;8.10;;;;;;;14.42;59.42;101022.37;636626;225;24819;-75
2021/03/31 08:11:36;;;;;;;22.37;7.90;;;;;;;14.64;58.84;101021.13;636488;225;24856;-75
2021/03/31 08:14:04;;;;;;;14.43;8.63;;;;;;;14.38;59.76;101022.34;636983;225;23820;-75
2021/03/31 08:16:33;;;;;;;13.23;8.73;;;;;;;14.60;60.76;101029.41;637341;221;24860;-76
2021/03/31 08:19:00;;;;;;;13.67;8.77;;;;;;;15.21;60.31;101026.75;632415;225;32974;-75
2021/03/31 08:21:28;;;;;;;13.77;9.67;;;;;;;15.08;58.16;101019.31;635721;224;23819;-76
2021/03/31 08:23:57;;;;;;;15.93;9.77;;;;;;;15.20;57.38;101015.09;637182;225;23818;-75
2021/03/31 08:26:27;;;;;;;12.70;9.70;;;;;;;15.18;56.80;101011.81;623952;226;24886;-75
2021/03/31 08:28:55;;;;;;;17.13;8.97;;;;;;;15.39;56.44;101010.47;637581;223;23817;-75
2021/03/31 08:31:23;;;;;;;13.13;8.73;;;;;;;15.73;57.07;101002.59;641027;222;23822;-75
2021/03/31 08:33:51;;;;;;;16.43;8.37;;;;;;;15.88;57.02;101005.91;632151;225;24825;-75
2021/03/31 08:36:19;;;;;;;19.97;10.93;;;;;;;16.18;55.56;101004.00;638518;224;24870;-75
2021/03/31 08:38:52;;;;;;;15.90;9.80;;;;;;;16.04;55.82;100997.58;637968;225;28045;-75
2021/03/31 08:41:20;;;;;;;17.03;9.10;;;;;;;16.20;55.70;101011.25;638096;225;31368;-75
2021/03/31 08:43:48;;;;;;;16.17;9.80;;;;;;;16.30;56.57;101004.51;635308;225;23903;-75
2021/03/31 08:46:35;;;;;;;15.78;10.88;;;;;;;16.95;56.35;101005.84;612046;229;33659;-75
2021/03/31 08:49:02;;;;;;;12.80;9.60;;;;;;;17.11;55.73;100996.59;621423;229;22897;-75
2021/03/31 08:51:30;;;;;;;17.80;9.70;;;;;;;17.29;54.56;100994.24;630281;225;32759;-75
2021/03/31 08:54:02;;;;;;;16.27;9.40;;;;;;;16.35;55.24;100994.85;638258;225;25844;-75
2021/03/31 08:56:29;;;;;;;12.50;7.67;;;;;;;16.54;55.47;100998.45;638406;221;23825;-78
2021/03/31 08:58:57;;;;;;;14.10;8.07;;;;;;;16.79;55.02;100993.55;637768;225;24926;-75
2021/03/31 09:01:26;;;;;;;15.00;7.60;;;;;;;16.94;54.44;100989.75;631886;225;23924;-75
2021/03/31 09:04:12;;;;;;;13.75;8.10;;;;;;;17.69;53.62;100993.29;620407;225;32824;-74
2021/03/31 09:06:40;;;;;;;33.30;8.63;;;;;;;17.70;55.13;100990.48;627957;228;22731;-75
2021/03/31 09:09:08;;;;;;;16.63;7.17;;;;;;;17.78;53.95;100983.88;628372;228;23920;-75
2021/03/31 09:11:36;;;;;;;11.57;6.40;;;;;;;17.95;53.68;100974.56;623571;229;23889;-75
2021/03/31 09:14:15;;;;;;;12.07;6.60;;;;;;;18.21;53.24;100972.41;620293;229;24877;-75
2021/03/31 09:16:52;;;;;;;9.47;6.20;;;;;;;17.69;53.66;100961.72;614928;229;23889;-75
2021/03/31 09:19:20;;;;;;;8.13;5.57;;;;;;;18.27;54.71;100961.16;612758;230;24876;-75
2021/03/31 09:21:48;;;;;;;12.30;6.50;;;;;;;18.42;52.95;100956.42;622140;228;24877;-75
2021/03/31 09:24:16;;;;;;;14.83;5.97;;;;;;;18.65;53.69;100954.61;637596;225;25974;-75
2021/03/31 09:26:55;;;;;;;12.33;5.90;;;;;;;18.77;51.81;100951.86;616159;228;23895;-75
2021/03/31 09:29:23;;;;;;;16.13;5.50;;;;;;;19.21;52.86;100951.04;632451;225;23857;-75
2021/03/31 09:31:51;;;;;;;8.97;6.40;;;;;;;19.67;51.00;100945.52;614038;230;28172;-76
2021/03/31 09:34:19;;;;;;;7.90;4.70;;;;;;;19.58;50.49;100935.59;633583;221;24997;-76
2021/03/31 09:36:59;;;;;;;12.93;5.53;;;;;;;19.67;51.78;100937.09;632773;225;23883;-75
2021/03/31 09:39:41;;;;;;;12.50;6.00;;;;;;;19.38;51.09;100935.31;637532;221;23820;-75
2021/03/31 09:42:09;;;;;;;12.03;5.27;;;;;;;19.95;50.55;100938.50;623112;227;23859;-75
2021/03/31 09:44:37;;;;;;;14.53;6.70;;;;;;;20.54;49.82;100930.79;621828;228;32848;-75
2021/03/31 09:47:05;;;;;;;9.57;6.10;;;;;;;20.27;50.10;100927.09;633709;225;22995;-76
2021/03/31 09:49:33;;;;;;;9.50;5.90;;;;;;;20.06;49.36;100918.70;636635;225;23859;-75
2021/03/31 09:52:01;;;;;;;12.30;5.80;;;;;;;19.83;50.33;100924.16;632275;225;26975;-75
2021/03/31 09:54:29;;;;;;;9.30;5.23;;;;;;;20.03;50.07;100914.63;632853;221;24146;-76
2021/03/31 09:56:57;;;;;;;10.87;5.50;;;;;;;20.73;51.59;100925.66;635194;225;23865;-75
2021/03/31 09:59:25;;;;;;;8.93;5.27;;;;;;;21.18;48.89;100916.83;623285;229;23842;-76
2021/03/31 10:01:53;;;;;;;10.10;5.40;;;;;;;21.60;49.52;100910.48;621036;229;23897;-76
2021/03/31 10:04:21;;;;;;;11.43;5.70;;;;;;;21.95;48.94;100903.70;628170;225;24855;-76
2021/03/31 10:07:07;;;;;;;19.83;5.87;;;;;;;22.17;47.79;100893.77;635052;225;23847;-75
2021/03/31 10:09:39;;;;;;;12.07;5.67;;;;;;;22.22;46.37;100877.55;635980;225;24865;-76
2021/03/31 10:12:07;;;;;;;10.57;6.10;;;;;;;21.40;47.41;100871.75;617559;229;27037;-75
2021/03/31 10:14:35;;;;;;;14.10;6.30;;;;;;;21.97;47.81;100870.41;635718;222;23828;-76
2021/03/31 10:17:03;;;;;;;10.37;6.03;;;;;;;22.12;47.22;100873.19;638129;225;23815;-75
2021/03/31 10:19:31;;;;;;;9.67;5.67;;;;;;;22.84;47.14;100871.96;634656;224;23827;-76
2021/03/31 10:22:05;;;;;;;11.37;6.10;;;;;;;22.93;45.06;100862.21;638238;225;24059;-76
2021/03/31 10:24:36;;;;;;;11.00;6.20;;;;;;;22.67;46.41;100856.99;636896;221;23998;-76
2021/03/31 10:27:04;;;;;;;10.57;5.90;;;;;;;22.99;47.06;100862.72;636238;225;23831;-76
2021/03/31 10:29:32;;;;;;;16.20;7.23;;;;;;;22.15;46.52;100857.38;636585;225;24832;-76
2021/03/31 10:32:01;;;;;;;14.53;7.10;;;;;;;22.13;46.14;100852.29;630300;225;32995;-75
2021/03/31 10:34:38;;;;;;;11.80;7.73;;;;;;;22.10;46.01;100859.81;637378;221;22702;-76
2021/03/31 10:37:11;;;;;;;10.43;6.67;;;;;;;22.61;46.42;100861.78;637765;225;23837;-75
2021/03/31 10:47:45;;;;;;;13.63;6.90;;;;;;;23.69;44.31;100846.31;634996;226;23869;-76
2021/03/31 10:50:01;;;;;;;11.97;7.10;;;;;;;23.49;43.40;100835.48;637172;225;23822;-76
2021/03/31 10:52:30;;;;;;;11.60;7.60;;;;;;;22.71;44.14;100831.67;624862;227;24887;-76
2021/03/31 10:54:56;;;;;;;13.17;6.83;;;;;;;23.51;45.81;100830.27;615533;229;23851;-75
2021/03/31 10:57:23;;;;;;;15.63;8.10;;;;;;;23.01;43.76;100816.06;627038;228;23846;-76
2021/03/31 10:59:51;;;;;;;10.43;6.33;;;;;;;23.50;44.21;100817.19;631341;225;23942;-75
2021/03/31 11:02:19;;;;;;;13.73;7.37;;;;;;;22.94;44.41;100813.94;622106;229;23853;-75
2021/03/31 11:04:47;;;;;;;15.17;7.40;;;;;;;23.52;43.59;100817.30;622298;229;23887;-76
2021/03/31 11:07:14;;;;;;;14.20;8.10;;;;;;;23.41;43.51;100811.34;636787;225;23860;-75
2021/03/31 11:09:43;;;;;;;11.33;6.70;;;;;;;23.27;43.34;100808.47;638189;224;23831;-76
2021/03/31 11:12:11;;;;;;;14.80;6.93;;;;;;;23.42;42.07;100799.69;636380;225;23816;-74
2021/03/31 11:14:39;;;;;;;12.40;6.67;;;;;;;23.48;41.78;100796.67;615914;229;23890;-75
2021/03/31 11:17:18;;;;;;;11.57;7.00;;;;;;;24.09;43.23;100794.67;630341;225;27029;-74
2021/03/31 11:19:47;;;;;;;10.43;5.87;;;;;;;24.38;43.80;100794.50;635171;225;23813;-76
2021/03/31 11:27:17;;;;;;;11.10;6.40;;;;;;;24.49;39.47;100765.80;636692;225;23942;-75
2021/03/31 11:29:44;;;;;;;13.67;6.83;;;;;;;24.99;42.62;100769.58;634952;222;23839;-75
2021/03/31 11:32:12;;;;;;;9.97;5.80;;;;;;;25.10;40.90;100770.98;639288;224;27007;-75
2021/03/31 11:34:40;;;;;;;12.83;6.37;;;;;;;24.52;39.60;100754.23;615069;229;23899;-75
2021/03/31 11:37:08;;;;;;;10.23;5.93;;;;;;;24.67;39.75;100755.16;637278;224;23892;-75
2021/03/31 11:39:36;;;;;;;12.82;6.90;;;;;;;24.65;39.50;100742.61;617846;229;33003;-75
2021/03/31 11:42:04;;;;;;;10.67;5.53;;;;;;;24.83;39.98;100741.23;625608;228;22737;-75
2021/03/31 11:44:32;;;;;;;10.77;5.57;;;;;;;24.63;40.07;100742.00;627604;228;23852;-75